createdAt,value
2022-08-07T00:00:40.133Z,218.87
2022-08-07T00:10:48.007Z,217.23
2022-08-07T00:21:17.094Z,217.93
2022-08-07T00:31:37.775Z,220.37
2022-08-07T00:42:01.355Z,220.63
2022-08-07T00:52:08.649Z,216.90
2022-08-07T01:02:28.333Z,216.57
2022-08-07T01:12:33.305Z,218.57
2022-08-07T01:22:41.492Z,215.23
2022-08-07T01:32:58.420Z,212.60
2022-08-07T01:43:06.185Z,217.47
2022-08-07T01:53:20.857Z,217.17
2022-08-07T02:03:48.925Z,209.97
2022-08-07T02:14:02.405Z,220.17
2022-08-07T02:24:10.694Z,214.10
2022-08-07T02:34:21.334Z,219.47
2022-08-07T02:44:34.880Z,214.70
2022-08-07T02:54:43.845Z,213.10
2022-08-07T03:04:49.429Z,215.77
2022-08-07T03:14:53.675Z,215.93
2022-08-07T03:24:59.942Z,213.90
2022-08-07T03:35:18.323Z,213.93
2022-08-07T03:45:30.771Z,214.00
2022-08-07T03:55:57.312Z,217.90
2022-08-07T04:06:03.726Z,210.53
2022-08-07T04:16:10.879Z,212.73
2022-08-07T04:26:21.727Z,215.37
2022-08-07T04:36:26.542Z,217.93
2022-08-07T04:46:59.743Z,215.73
2022-08-07T04:58:12.864Z,210.27
2022-08-07T05:07:48.576Z,212.03
2022-08-07T05:18:00.745Z,217.27
2022-08-07T05:28:20.589Z,214.83
2022-08-07T05:38:59.954Z,210.77
2022-08-07T05:48:58.162Z,217.47
2022-08-07T05:59:09.652Z,214.13
2022-08-07T06:09:16.759Z,210.90
2022-08-07T06:19:48.013Z,214.07
2022-08-07T06:29:49.524Z,214.60
2022-08-07T06:40:16.390Z,210.37
2022-08-07T06:50:19.201Z,214.57
2022-08-07T07:00:24.316Z,211.70
2022-08-07T07:10:31.264Z,218.10
2022-08-07T07:20:39.221Z,207.87
2022-08-07T07:30:52.526Z,206.53
2022-08-07T07:41:02.392Z,210.23
2022-08-07T07:51:08.856Z,208.63
2022-08-07T08:02:03.420Z,207.47
2022-08-07T08:11:59.865Z,202.67
2022-08-07T08:22:20.787Z,207.70
2022-08-07T08:32:47.025Z,208.57
2022-08-07T08:43:10.343Z,210.73
2022-08-07T08:53:26.387Z,203.13
2022-08-07T09:03:49.354Z,206.73
2022-08-07T09:14:10.297Z,212.50
2022-08-07T09:24:56.136Z,212.30
2022-08-07T09:36:01.054Z,205.27
2022-08-07T09:47:25.159Z,203.30
2022-08-07T09:56:44.269Z,206.23
2022-08-07T10:07:26.013Z,204.35
2022-08-07T10:18:03.442Z,200.95
2022-08-07T10:28:30.999Z,199.30
2022-08-07T10:38:53.199Z,203.15
2022-08-07T10:49:10.226Z,201.43
2022-08-07T10:59:30.498Z,205.02
2022-08-07T11:10:07.841Z,208.35
2022-08-07T11:20:20.054Z,206.32
2022-08-07T11:30:41.941Z,213.07
2022-08-07T11:40:52.826Z,211.03
2022-08-07T11:51:40.799Z,206.10
2022-08-07T12:02:00.559Z,208.03
2022-08-07T12:12:11.563Z,211.17
2022-08-07T12:22:39.415Z,213.47
2022-08-07T12:32:59.955Z,209.70
2022-08-07T12:43:09.228Z,204.07
2022-08-07T12:53:22.071Z,205.07
2022-08-07T13:04:05.493Z,205.83
2022-08-07T13:14:23.060Z,207.93
2022-08-07T13:24:35.933Z,217.00
2022-08-07T13:34:57.877Z,211.17
2022-08-07T13:45:20.634Z,217.93
2022-08-07T13:55:34.079Z,209.60
2022-08-07T14:05:42.809Z,209.00
2022-08-07T14:15:56.848Z,209.33
2022-08-07T14:26:08.477Z,207.03
2022-08-07T14:36:15.337Z,206.80
2022-08-07T14:56:50.487Z,210.47
2022-08-07T15:06:58.736Z,212.03
2022-08-07T15:17:13.220Z,211.20
2022-08-07T15:27:25.564Z,218.70
2022-08-07T15:38:18.115Z,221.60
2022-08-07T15:48:12.535Z,207.70
2022-08-07T15:58:21.028Z,211.77
2022-08-07T16:08:37.698Z,211.37
2022-08-07T16:19:12.726Z,210.70
2022-08-07T16:30:10.625Z,214.37
2022-08-07T16:40:28.884Z,214.83
2022-08-07T16:51:07.379Z,211.23
2022-08-07T17:01:41.585Z,214.30
2022-08-07T17:12:05.107Z,209.17
2022-08-07T17:22:37.522Z,215.83
2022-08-07T17:32:58.519Z,217.97
2022-08-07T17:43:18.054Z,214.33
2022-08-07T17:54:00.608Z,215.57
2022-08-07T18:04:24.663Z,212.77
2022-08-07T18:14:45.077Z,215.30
2022-08-07T18:25:01.597Z,218.23
2022-08-07T18:35:51.492Z,215.87
2022-08-07T18:46:24.748Z,219.40
2022-08-07T18:56:39.585Z,224.53
2022-08-07T19:07:08.362Z,215.37
2022-08-07T19:17:59.348Z,226.50
2022-08-07T19:28:57.148Z,226.37
2022-08-07T19:38:17.354Z,218.53
2022-08-07T19:48:31.333Z,220.73
2022-08-07T19:58:53.199Z,221.33
2022-08-07T20:09:02.940Z,219.00
2022-08-07T20:19:10.521Z,211.00
2022-08-07T20:29:47.658Z,219.03
2022-08-07T20:40:03.379Z,214.87
2022-08-07T20:50:10.698Z,210.73
2022-08-07T21:00:18.906Z,209.97
2022-08-07T21:10:31.445Z,213.83
2022-08-07T21:20:37.492Z,221.93
2022-08-07T21:30:54.799Z,221.73
2022-08-07T21:41:19.471Z,218.13
2022-08-07T21:51:50.971Z,214.30
2022-08-07T22:02:15.330Z,213.73
2022-08-07T22:12:25.918Z,216.17
2022-08-07T22:22:44.776Z,209.40
2022-08-07T22:33:04.918Z,211.87
2022-08-07T22:43:12.967Z,214.57
2022-08-07T22:54:07.830Z,221.13
2022-08-07T23:04:45.184Z,216.00
2022-08-07T23:15:21.928Z,218.00
2022-08-07T23:26:00.691Z,211.17
2022-08-07T23:36:17.258Z,211.33
2022-08-07T23:46:58.667Z,211.73
2022-08-07T23:57:14.710Z,212.53
